createdAt,value
2023-04-09T00:01:10.361Z,26.08
2023-04-09T00:03:38.484Z,27.10
2023-04-09T00:06:05.619Z,24.77
2023-04-09T00:08:32.337Z,24.60
2023-04-09T00:11:00.050Z,24.77
2023-04-09T00:15:59.433Z,30.60
2023-04-09T00:18:26.283Z,25.92
2023-04-09T00:20:52.890Z,28.02
2023-04-09T00:23:20.959Z,28.25
2023-04-09T00:25:47.546Z,26.48
2023-04-09T00:28:14.171Z,27.38
2023-04-09T00:30:40.809Z,25.80
2023-04-09T00:33:07.470Z,28.67
2023-04-09T00:35:34.121Z,32.25
2023-04-09T00:38:00.787Z,29.05
2023-04-09T00:40:27.451Z,28.27
2023-04-09T00:42:54.125Z,25.85
2023-04-09T00:45:23.590Z,32.10
2023-04-09T00:47:50.625Z,34.25
2023-04-09T00:50:17.385Z,31.45
2023-04-09T00:52:44.112Z,32.22
2023-04-09T00:55:10.953Z,36.03
2023-04-09T00:57:37.685Z,31.13
2023-04-09T01:00:04.976Z,34.15
2023-04-09T01:02:31.781Z,32.10
2023-04-09T01:04:58.925Z,30.83
2023-04-09T01:07:31.566Z,32.45
2023-04-09T01:10:23.951Z,35.17
2023-04-09T01:13:15.163Z,31.08
2023-04-09T01:15:50.364Z,35.65
2023-04-09T01:18:49.280Z,32.53
2023-04-09T01:21:20.504Z,36.15
2023-04-09T01:24:08.795Z,33.10
2023-04-09T01:26:57.291Z,34.63
2023-04-09T01:29:26.119Z,34.85
2023-04-09T01:31:54.431Z,37.50
2023-04-09T01:34:22.380Z,37.40
2023-04-09T01:36:53.986Z,37.10
2023-04-09T01:39:21.282Z,40.67
2023-04-09T01:41:48.942Z,41.97
2023-04-09T01:44:20.121Z,42.95
2023-04-09T01:46:48.376Z,40.53
2023-04-09T01:49:15.703Z,41.90
2023-04-09T01:51:42.591Z,38.85
2023-04-09T01:54:09.597Z,43.78
2023-04-09T01:56:48.124Z,44.88
2023-04-09T01:59:15.760Z,41.90
2023-04-09T02:01:58.684Z,47.97
2023-04-09T02:04:35.691Z,45.47
2023-04-09T02:07:12.859Z,44.08
2023-04-09T02:09:43.582Z,47.05
2023-04-09T02:12:13.691Z,43.95
2023-04-09T02:14:41.499Z,42.78
2023-04-09T02:17:08.276Z,44.58
2023-04-09T02:19:40.979Z,44.92
2023-04-09T02:22:08.041Z,42.42
2023-04-09T02:24:34.824Z,46.42
2023-04-09T02:27:02.285Z,43.58
2023-04-09T02:29:28.973Z,45.45
2023-04-09T02:31:55.605Z,50.10
2023-04-09T02:34:22.750Z,47.03
2023-04-09T02:36:49.402Z,45.85
2023-04-09T02:39:16.220Z,39.55
2023-04-09T02:41:42.818Z,43.22
2023-04-09T02:44:09.430Z,48.80
2023-04-09T02:46:38.965Z,45.10
2023-04-09T02:49:05.665Z,43.13
2023-04-09T02:51:34.169Z,43.30
2023-04-09T02:54:00.806Z,43.60
2023-04-09T02:56:27.533Z,42.15
2023-04-09T02:58:54.499Z,44.95
2023-04-09T03:01:21.370Z,42.58
2023-04-09T03:03:48.218Z,39.10
2023-04-09T03:06:15.028Z,45.17
2023-04-09T03:08:41.658Z,43.45
2023-04-09T03:11:08.257Z,45.13
2023-04-09T03:13:34.818Z,44.53
2023-04-09T03:16:01.416Z,40.38
2023-04-09T03:18:28.122Z,41.83
2023-04-09T03:20:54.690Z,41.75
2023-04-09T03:23:21.298Z,44.22
2023-04-09T03:25:47.915Z,43.53
2023-04-09T03:28:14.502Z,46.50
2023-04-09T03:30:41.297Z,42.30
2023-04-09T03:33:07.942Z,42.88
2023-04-09T03:35:34.617Z,40.05
2023-04-09T03:38:01.277Z,44.78
2023-04-09T03:40:27.957Z,50.45
2023-04-09T03:42:54.520Z,42.30
2023-04-09T03:45:21.424Z,44.35
2023-04-09T03:47:48.050Z,41.90
2023-04-09T03:50:14.856Z,40.83
2023-04-09T03:52:41.423Z,40.92
2023-04-09T03:55:08.928Z,45.30
2023-04-09T03:57:35.615Z,44.03
2023-04-09T04:00:02.204Z,39.25
2023-04-09T04:02:32.038Z,41.83
2023-04-09T04:04:58.781Z,42.55
2023-04-09T04:07:25.682Z,40.95
2023-04-09T04:09:52.294Z,40.40
2023-04-09T04:12:18.989Z,41.40
2023-04-09T04:14:45.820Z,39.40
2023-04-09T04:17:12.576Z,41.38
2023-04-09T04:19:39.178Z,41.40
2023-04-09T04:22:05.782Z,45.28
2023-04-09T04:24:32.403Z,37.40
2023-04-09T04:26:59.037Z,41.70
2023-04-09T04:29:27.744Z,41.72
2023-04-09T04:31:54.380Z,41.20
2023-04-09T04:34:20.967Z,39.92
2023-04-09T04:36:47.512Z,41.30
2023-04-09T04:39:14.172Z,36.25
2023-04-09T04:41:40.733Z,40.13
2023-04-09T04:44:07.319Z,42.58
2023-04-09T04:46:33.961Z,41.63
2023-04-09T04:49:00.796Z,43.60
2023-04-09T04:51:27.892Z,42.10
2023-04-09T04:53:54.595Z,41.38
2023-04-09T04:56:21.399Z,43.40
2023-04-09T04:58:47.971Z,43.15
2023-04-09T05:01:14.688Z,49.05
2023-04-09T05:03:41.432Z,37.67
2023-04-09T05:06:08.058Z,43.38
2023-04-09T05:08:34.725Z,43.42
2023-04-09T05:11:01.339Z,41.65
2023-04-09T05:13:27.965Z,42.78
2023-04-09T05:15:54.626Z,44.47
2023-04-09T05:18:21.742Z,41.83
2023-04-09T05:20:48.316Z,40.00
2023-04-09T05:23:14.902Z,38.70
2023-04-09T05:25:41.527Z,36.80
2023-04-09T05:28:08.279Z,64.25
2023-04-09T05:30:34.941Z,126.43
2023-04-09T05:33:01.631Z,44.97
2023-04-09T05:35:28.300Z,40.40
2023-04-09T05:37:54.965Z,38.17
2023-04-09T05:40:21.728Z,38.35
2023-04-09T05:42:48.364Z,38.97
2023-04-09T05:45:15.136Z,38.22
2023-04-09T05:47:41.726Z,38.47
2023-04-09T05:50:08.677Z,41.40
2023-04-09T05:52:35.440Z,36.30
2023-04-09T05:55:02.049Z,39.05
2023-04-09T05:57:30.597Z,38.53
2023-04-09T05:59:57.459Z,53.90
2023-04-09T06:02:25.984Z,37.92
2023-04-09T06:04:54.691Z,41.03
2023-04-09T06:07:21.523Z,40.08
2023-04-09T06:09:48.248Z,37.33
2023-04-09T06:12:15.796Z,45.15
2023-04-09T06:14:42.403Z,36.03
2023-04-09T06:17:09.041Z,36.83
2023-04-09T06:19:35.887Z,41.15
2023-04-09T06:22:02.514Z,37.05
2023-04-09T06:24:31.613Z,39.10
2023-04-09T06:26:58.263Z,36.67
2023-04-09T06:29:24.891Z,37.40
2023-04-09T06:31:51.763Z,36.53
2023-04-09T06:34:18.416Z,36.47
2023-04-09T06:36:45.001Z,44.30
2023-04-09T06:39:11.859Z,37.63
2023-04-09T06:41:38.470Z,39.30
2023-04-09T06:44:05.415Z,36.22
2023-04-09T06:46:32.094Z,37.78
2023-04-09T06:48:58.750Z,36.15
2023-04-09T06:51:25.386Z,33.17
2023-04-09T06:53:52.218Z,36.72
2023-04-09T06:56:18.940Z,38.50
2023-04-09T06:58:48.557Z,39.28
2023-04-09T07:01:17.347Z,39.25
2023-04-09T07:03:44.152Z,35.08
2023-04-09T07:06:10.833Z,38.67
2023-04-09T07:08:37.432Z,39.78
2023-04-09T07:11:04.150Z,36.42
2023-04-09T07:13:31.427Z,36.97
2023-04-09T07:15:58.023Z,37.30
2023-04-09T07:18:24.652Z,42.60
2023-04-09T07:20:52.701Z,33.22
2023-04-09T07:23:19.655Z,33.10
2023-04-09T07:25:46.324Z,35.22
2023-04-09T07:28:13.079Z,33.88
2023-04-09T07:30:42.775Z,36.13
2023-04-09T07:33:09.437Z,37.03
2023-04-09T07:35:36.264Z,33.33
2023-04-09T07:38:03.200Z,33.80
2023-04-09T07:40:29.807Z,35.28
2023-04-09T07:43:01.059Z,36.15
2023-04-09T07:45:27.705Z,36.42
2023-04-09T07:47:54.364Z,33.50
2023-04-09T07:50:21.236Z,33.30
2023-04-09T07:52:47.816Z,36.20
2023-04-09T07:55:15.159Z,34.15
2023-04-09T07:57:43.728Z,32.63
2023-04-09T08:00:11.044Z,39.20
2023-04-09T08:02:37.832Z,38.22
2023-04-09T08:05:05.082Z,33.20
2023-04-09T08:07:31.788Z,31.55
2023-04-09T08:09:58.364Z,31.90
2023-04-09T08:12:25.163Z,32.15
2023-04-09T08:14:51.811Z,33.35
2023-04-09T08:17:18.404Z,33.75
2023-04-09T08:19:45.062Z,32.80
2023-04-09T08:22:11.927Z,36.72
2023-04-09T08:24:40.269Z,35.65
2023-04-09T08:27:06.983Z,31.40
2023-04-09T08:29:34.558Z,34.15
2023-04-09T08:32:01.369Z,34.90
2023-04-09T08:34:28.191Z,34.05
2023-04-09T08:36:54.844Z,33.25
2023-04-09T08:39:21.622Z,31.08
2023-04-09T08:41:51.413Z,28.70
2023-04-09T08:44:18.488Z,31.83
2023-04-09T08:46:45.214Z,31.38
2023-04-09T08:49:13.060Z,32.28
2023-04-09T08:51:40.409Z,41.40
2023-04-09T08:54:07.529Z,30.50
2023-04-09T08:56:34.244Z,32.05
2023-04-09T08:59:00.865Z,27.10
2023-04-09T09:01:32.608Z,29.63
2023-04-09T09:04:02.074Z,30.35
2023-04-09T09:06:32.868Z,33.50
2023-04-09T09:09:16.934Z,31.15
2023-04-09T09:11:50.217Z,32.80
2023-04-09T09:14:18.854Z,30.95
2023-04-09T09:17:04.750Z,25.75
2023-04-09T09:19:36.650Z,25.33
2023-04-09T09:22:05.439Z,24.70
2023-04-09T09:24:33.369Z,27.65
2023-04-09T09:27:03.279Z,29.45
2023-04-09T09:29:30.044Z,28.90
2023-04-09T09:31:57.014Z,28.40
2023-04-09T09:34:25.410Z,28.05
2023-04-09T09:36:52.098Z,26.88
2023-04-09T09:39:18.909Z,28.80
2023-04-09T09:41:46.577Z,26.35
2023-04-09T09:44:31.918Z,25.65
2023-04-09T09:46:59.367Z,19.73
2023-04-09T09:49:26.051Z,21.08
2023-04-09T09:51:56.873Z,20.52
2023-04-09T09:54:26.016Z,16.42
2023-04-09T09:56:56.032Z,17.98
2023-04-09T09:59:32.207Z,19.52
2023-04-09T10:02:06.215Z,19.33
2023-04-09T10:04:38.224Z,18.25
2023-04-09T10:07:07.446Z,21.38
2023-04-09T10:09:41.688Z,18.65
2023-04-09T10:12:09.749Z,18.50
2023-04-09T10:14:38.216Z,22.27
2023-04-09T10:17:05.286Z,20.77
2023-04-09T10:19:38.333Z,21.20
2023-04-09T10:22:11.825Z,21.00
2023-04-09T10:24:38.986Z,20.52
2023-04-09T10:27:15.936Z,22.45
2023-04-09T10:29:51.961Z,18.75
2023-04-09T10:32:21.650Z,20.92
2023-04-09T10:34:49.336Z,19.52
2023-04-09T10:37:21.576Z,21.20
2023-04-09T10:39:50.011Z,16.98
2023-04-09T10:42:27.342Z,15.02
2023-04-09T10:45:10.315Z,22.35
2023-04-09T10:47:39.513Z,21.77
2023-04-09T10:50:16.045Z,19.40
2023-04-09T10:52:44.338Z,18.02
2023-04-09T10:55:31.547Z,16.27
2023-04-09T10:57:58.865Z,19.88
2023-04-09T11:00:25.570Z,17.20
2023-04-09T11:03:08.016Z,15.57
2023-04-09T11:05:38.503Z,17.00
2023-04-09T11:08:13.406Z,15.77
2023-04-09T11:13:13.395Z,17.05
2023-04-09T11:15:40.280Z,17.65
2023-04-09T11:18:07.241Z,14.30
2023-04-09T11:20:34.825Z,14.90
2023-04-09T11:23:02.169Z,13.93
2023-04-09T11:25:31.533Z,17.90
2023-04-09T11:27:58.874Z,15.23
2023-04-09T11:30:26.361Z,15.68
2023-04-09T11:32:53.207Z,15.65
2023-04-09T11:35:25.028Z,13.07
2023-04-09T11:37:52.556Z,15.10
2023-04-09T11:40:29.150Z,14.65
2023-04-09T11:42:57.079Z,15.38
2023-04-09T11:45:27.451Z,14.35
2023-04-09T11:47:55.056Z,15.88
2023-04-09T11:50:22.427Z,14.80
2023-04-09T11:52:49.829Z,15.38
2023-04-09T11:55:27.105Z,16.08
2023-04-09T11:57:57.574Z,16.17
2023-04-09T12:00:25.152Z,15.07
2023-04-09T12:03:04.243Z,14.90
2023-04-09T12:05:33.833Z,15.52
2023-04-09T12:08:02.659Z,17.35
2023-04-09T12:10:32.639Z,21.52
2023-04-09T12:13:07.063Z,25.65
2023-04-09T12:15:35.629Z,24.38
2023-04-09T12:18:02.398Z,23.23
2023-04-09T12:20:37.771Z,23.17
2023-04-09T12:23:05.840Z,26.15
2023-04-09T12:25:36.993Z,22.08
2023-04-09T12:28:05.898Z,27.52
2023-04-09T12:30:33.252Z,28.60
2023-04-09T12:33:00.500Z,22.98
2023-04-09T12:35:30.490Z,23.80
2023-04-09T12:37:57.118Z,26.15
2023-04-09T12:40:23.752Z,23.88
2023-04-09T12:42:50.728Z,21.08
2023-04-09T12:45:18.812Z,20.20
2023-04-09T12:47:46.050Z,18.83
2023-04-09T12:50:15.018Z,19.67
2023-04-09T12:52:42.647Z,18.08
2023-04-09T12:55:09.896Z,18.95
2023-04-09T12:57:42.808Z,16.15
2023-04-09T13:00:09.908Z,16.67
2023-04-09T13:02:37.113Z,15.38
2023-04-09T13:05:04.644Z,16.33
2023-04-09T13:07:31.422Z,15.13
2023-04-09T13:09:58.283Z,14.95
2023-04-09T13:12:27.626Z,14.25
2023-04-09T13:14:54.974Z,15.93
2023-04-09T13:17:22.789Z,15.35
2023-04-09T13:19:50.825Z,15.27
2023-04-09T13:22:18.500Z,16.15
2023-04-09T13:24:45.270Z,12.77
2023-04-09T13:27:12.308Z,13.18
2023-04-09T13:29:39.143Z,17.63
2023-04-09T13:32:11.210Z,13.38
2023-04-09T13:34:39.279Z,11.77
2023-04-09T13:37:06.304Z,12.35
2023-04-09T13:39:33.261Z,13.15
2023-04-09T13:42:00.444Z,14.73
2023-04-09T13:44:27.518Z,13.15
2023-04-09T13:46:57.163Z,13.27
2023-04-09T13:49:24.002Z,13.45
2023-04-09T13:51:52.246Z,13.93
2023-04-09T13:54:19.071Z,12.50
2023-04-09T13:56:46.673Z,13.43
2023-04-09T13:59:13.331Z,12.65
2023-04-09T14:04:06.652Z,12.27
2023-04-09T14:06:33.315Z,11.57
2023-04-09T14:08:59.960Z,12.73
2023-04-09T14:11:26.604Z,14.40
2023-04-09T14:13:53.472Z,14.52
2023-04-09T14:16:20.361Z,11.15
2023-04-09T14:18:50.086Z,12.45
2023-04-09T14:21:18.177Z,13.63
2023-04-09T14:23:44.834Z,13.80
2023-04-09T14:26:12.179Z,13.25
2023-04-09T14:28:38.928Z,12.82
2023-04-09T14:31:06.512Z,12.98
2023-04-09T14:33:33.236Z,12.98
2023-04-09T14:35:59.938Z,14.40
2023-04-09T14:38:29.480Z,12.55
2023-04-09T14:40:56.181Z,12.07
2023-04-09T14:43:22.822Z,11.80
2023-04-09T14:45:49.457Z,10.63
2023-04-09T14:48:18.902Z,12.00
2023-04-09T14:50:45.590Z,10.65
2023-04-09T14:53:12.552Z,17.98
2023-04-09T14:55:39.164Z,15.50
2023-04-09T14:58:08.145Z,15.40
2023-04-09T15:00:34.811Z,12.57
2023-04-09T15:03:04.221Z,16.88
2023-04-09T15:05:31.186Z,12.20
2023-04-09T15:07:57.842Z,11.73
2023-04-09T15:10:24.516Z,12.30
2023-04-09T15:12:55.033Z,11.50
2023-04-09T15:15:21.749Z,13.27
2023-04-09T15:17:48.438Z,11.27
2023-04-09T15:20:15.173Z,11.48
2023-04-09T15:22:41.869Z,11.90
2023-04-09T15:25:08.764Z,10.77
2023-04-09T15:27:38.755Z,11.57
2023-04-09T15:30:06.429Z,12.25
2023-04-09T15:32:35.542Z,13.98
2023-04-09T15:35:02.252Z,12.85
2023-04-09T15:37:28.877Z,14.32
2023-04-09T15:39:55.500Z,13.60
2023-04-09T15:42:23.029Z,16.05
2023-04-09T15:44:53.147Z,15.13
2023-04-09T15:47:19.786Z,13.77
2023-04-09T15:49:46.950Z,15.85
2023-04-09T15:52:13.713Z,14.35
2023-04-09T15:54:40.400Z,13.90
2023-04-09T15:57:07.037Z,14.60
2023-04-09T15:59:33.706Z,14.60
2023-04-09T16:02:00.563Z,14.25
2023-04-09T16:04:27.725Z,13.95
2023-04-09T16:06:56.399Z,14.75
2023-04-09T16:09:24.924Z,15.32
2023-04-09T16:11:51.708Z,16.30
2023-04-09T16:14:18.413Z,15.82
2023-04-09T16:16:49.886Z,13.52
2023-04-09T16:19:17.813Z,14.82
2023-04-09T16:21:45.592Z,14.57
2023-04-09T16:24:12.939Z,15.93
2023-04-09T16:26:41.219Z,14.05
2023-04-09T16:29:08.641Z,14.77
2023-04-09T16:31:36.737Z,15.50
2023-04-09T16:34:03.672Z,13.18
2023-04-09T16:36:37.176Z,14.38
2023-04-09T16:39:05.153Z,14.65
2023-04-09T16:41:32.961Z,14.57
2023-04-09T16:44:00.522Z,12.68
2023-04-09T16:46:27.373Z,15.05
2023-04-09T16:48:54.214Z,14.85
2023-04-09T16:51:21.131Z,15.93
2023-04-09T16:53:48.008Z,15.18
2023-04-09T16:56:15.655Z,16.73
2023-04-09T16:58:42.279Z,15.57
2023-04-09T17:01:09.005Z,17.23
2023-04-09T17:03:35.733Z,15.93
2023-04-09T17:06:02.776Z,14.35
2023-04-09T17:08:29.380Z,16.92
2023-04-09T17:11:02.061Z,14.45
2023-04-09T17:13:34.279Z,15.90
2023-04-09T17:16:01.026Z,18.45
2023-04-09T17:18:27.866Z,16.30
2023-04-09T17:20:54.633Z,15.82
2023-04-09T17:23:23.184Z,15.93
2023-04-09T17:25:49.827Z,16.80
2023-04-09T17:28:18.795Z,16.90
2023-04-09T17:30:46.051Z,14.20
2023-04-09T17:33:12.903Z,17.85
2023-04-09T17:35:39.655Z,15.15
2023-04-09T17:38:06.710Z,15.43
2023-04-09T17:40:33.298Z,14.38
2023-04-09T17:43:00.377Z,16.45
2023-04-09T17:45:29.849Z,15.85
2023-04-09T17:47:57.313Z,14.75
2023-04-09T17:50:27.395Z,31.20
2023-04-09T17:52:54.050Z,85.60
2023-04-09T17:55:20.762Z,92.63
2023-04-09T17:57:47.462Z,73.30
2023-04-09T18:00:17.364Z,51.53
2023-04-09T18:02:45.128Z,46.90
2023-04-09T18:05:11.991Z,44.25
2023-04-09T18:07:38.693Z,33.20
2023-04-09T18:10:06.331Z,29.65
2023-04-09T18:12:33.099Z,25.77
2023-04-09T18:14:59.730Z,19.52
2023-04-09T18:17:26.616Z,18.13
2023-04-09T18:19:58.627Z,16.42
2023-04-09T18:22:27.028Z,18.10
2023-04-09T18:24:54.172Z,18.48
2023-04-09T18:27:23.134Z,20.38
2023-04-09T18:29:49.790Z,17.65
2023-04-09T18:32:19.198Z,18.17
2023-04-09T18:34:47.165Z,17.35
2023-04-09T18:37:14.889Z,17.60
2023-04-09T18:39:44.347Z,20.83
2023-04-09T18:42:10.995Z,16.80
2023-04-09T18:44:37.827Z,28.95
2023-04-09T18:47:09.392Z,18.15
2023-04-09T18:49:36.250Z,17.08
2023-04-09T18:52:05.582Z,18.95
2023-04-09T18:54:36.484Z,17.95
2023-04-09T18:57:06.597Z,17.50
2023-04-09T18:59:34.804Z,16.67
2023-04-09T19:02:03.813Z,19.20
2023-04-09T19:04:35.223Z,18.67
2023-04-09T19:07:02.622Z,16.98
2023-04-09T19:09:29.355Z,18.75
2023-04-09T19:11:57.812Z,19.08
2023-04-09T19:14:25.817Z,30.45
2023-04-09T19:16:52.420Z,19.70
2023-04-09T19:19:19.363Z,18.60
2023-04-09T19:21:45.998Z,21.60
2023-04-09T19:24:12.687Z,20.33
2023-04-09T19:26:39.586Z,20.50
2023-04-09T19:29:06.227Z,20.80
2023-04-09T19:31:32.877Z,21.60
2023-04-09T19:33:59.472Z,20.48
2023-04-09T19:36:26.902Z,20.35
2023-04-09T19:38:53.785Z,19.33
2023-04-09T19:41:20.763Z,22.35
2023-04-09T19:43:47.394Z,26.30
2023-04-09T19:46:14.081Z,22.83
2023-04-09T19:48:44.748Z,23.00
2023-04-09T19:51:18.706Z,22.00
2023-04-09T19:53:48.276Z,26.90
2023-04-09T19:56:15.709Z,22.90
2023-04-09T19:58:43.519Z,24.98
2023-04-09T20:01:10.214Z,26.80
2023-04-09T20:03:37.138Z,26.27
2023-04-09T20:06:09.261Z,25.05
2023-04-09T20:08:36.964Z,28.60
2023-04-09T20:11:03.744Z,22.27
2023-04-09T20:13:30.345Z,21.67
2023-04-09T20:15:57.301Z,26.73
2023-04-09T20:18:23.990Z,22.92
2023-04-09T20:20:53.392Z,21.73
2023-04-09T20:23:20.071Z,22.63
2023-04-09T20:25:46.969Z,26.52
2023-04-09T20:28:13.619Z,24.42
2023-04-09T20:30:40.317Z,27.52
2023-04-09T20:33:06.983Z,27.80
2023-04-09T20:35:36.653Z,27.27
2023-04-09T20:38:03.528Z,24.50
2023-04-09T20:40:31.383Z,25.10
2023-04-09T20:42:58.042Z,22.05
2023-04-09T20:45:24.680Z,25.58
2023-04-09T20:47:53.140Z,23.38
2023-04-09T20:50:19.945Z,23.50
2023-04-09T20:52:47.574Z,24.52
2023-04-09T20:55:14.355Z,23.33
2023-04-09T20:57:41.454Z,23.33
2023-04-09T21:00:08.774Z,26.55
2023-04-09T21:02:35.581Z,27.20
2023-04-09T21:05:15.058Z,23.52
2023-04-09T21:07:48.301Z,25.15
2023-04-09T21:10:15.011Z,24.25
2023-04-09T21:12:41.669Z,24.67
2023-04-09T21:15:08.846Z,23.67
2023-04-09T21:17:35.531Z,23.58
2023-04-09T21:20:02.313Z,25.85
2023-04-09T21:22:28.908Z,25.83
2023-04-09T21:24:56.397Z,28.63
2023-04-09T21:27:23.168Z,25.08
2023-04-09T21:29:49.908Z,26.88
2023-04-09T21:32:17.482Z,27.65
2023-04-09T21:34:44.092Z,30.10
2023-04-09T21:37:11.149Z,28.80
2023-04-09T21:39:38.554Z,32.03
2023-04-09T21:42:06.451Z,31.65
2023-04-09T21:44:33.811Z,35.83
2023-04-09T21:47:01.690Z,33.40
2023-04-09T21:49:28.337Z,37.70
2023-04-09T21:51:55.829Z,34.97
2023-04-09T21:54:22.432Z,35.33
2023-04-09T21:56:51.219Z,36.85
2023-04-09T21:59:17.861Z,42.80
2023-04-09T22:01:44.933Z,34.45
2023-04-09T22:04:12.056Z,35.92
2023-04-09T22:06:39.806Z,36.38
2023-04-09T22:09:06.399Z,35.13
2023-04-09T22:11:34.504Z,37.22
2023-04-09T22:14:02.641Z,35.92
2023-04-09T22:16:29.402Z,32.80
2023-04-09T22:18:56.275Z,36.22
2023-04-09T22:21:23.534Z,34.47
2023-04-09T22:23:50.124Z,35.58
2023-04-09T22:26:16.947Z,35.80
2023-04-09T22:28:43.588Z,35.58
2023-04-09T22:31:10.249Z,33.75
2023-04-09T22:33:36.915Z,33.90
2023-04-09T22:36:03.803Z,36.63
2023-04-09T22:38:30.579Z,37.85
2023-04-09T22:40:57.203Z,37.05
2023-04-09T22:43:23.852Z,38.47
2023-04-09T22:45:52.368Z,36.97
2023-04-09T22:48:19.757Z,36.95
2023-04-09T22:50:47.042Z,35.08
2023-04-09T22:53:20.935Z,39.25
2023-04-09T22:55:51.757Z,34.35
2023-04-09T22:58:19.098Z,35.05
2023-04-09T23:00:47.197Z,36.40
2023-04-09T23:03:14.348Z,32.78
2023-04-09T23:05:41.542Z,35.83
2023-04-09T23:08:08.490Z,36.42
2023-04-09T23:10:35.554Z,41.00
2023-04-09T23:13:02.439Z,36.67
2023-04-09T23:15:29.226Z,38.45
2023-04-09T23:17:56.257Z,37.33
2023-04-09T23:20:23.123Z,38.63
2023-04-09T23:22:49.831Z,39.17
2023-04-09T23:25:16.950Z,41.75
2023-04-09T23:27:43.887Z,45.08
2023-04-09T23:30:11.723Z,39.22
2023-04-09T23:32:38.420Z,41.65
2023-04-09T23:35:05.537Z,42.85
2023-04-09T23:37:32.215Z,42.75
2023-04-09T23:39:58.881Z,50.08
2023-04-09T23:42:29.836Z,44.22
2023-04-09T23:44:56.448Z,43.25
2023-04-09T23:47:23.108Z,38.75
2023-04-09T23:49:49.977Z,47.28
2023-04-09T23:52:16.572Z,45.22
2023-04-09T23:54:49.695Z,48.08
2023-04-09T23:57:17.789Z,46.25
2023-04-09T23:59:44.472Z,43.70
